Dehlco, Louisiana
Current Conditions -  °F | °C
As of 6:53 AM on Thursday 23 Oct 2014 (Local Time) from KMLU Reporting Station
Clear Clear  
Wind Chill: 45°   Ceiling: Unl
Heat Index: 48°   Visibility: 10mi
Dew Point: 45°   Wind: 6mph
Humidity: 89%   Direction: 50°NE
Pressure: 30.15"   Gusts: NA
Location:  32.4475°N, 91.7992°W
Report Text: KMLU 231153Z 05005KT 10SM CLR 09/07 A3015 RMK AO2 SLP210 T00890072 10111 20083 55001
Loading
Personal Weather Stations






























Interactive Weather Map
Tropical Storm Tracking
New forecast layout! Learn more

10-Day Weather Forecast

Advertisements
Track Severe Weather on mobile